Wetterdaten: Woche 17.10.16 - 23.10.16 (KW42)
Datum Zeit Temp. I. Temp. A. Feuchte I. Feuchte A. Luftdruck Regen Wind Richtung Sonnenschein UV Solar Taupunkt Windchill Windben
17.10.2016 00:00 23,7 C 8,8 C 53 % 93 % 1023,6 hPa 0,0 l/m 2,1 km/h (1 Bft) O-NO 0,00 h 0,0 UV-I 0 W/m 7,7 C 8,8 C 5,0 km/h (1 Bft)
17.10.2016 01:00 24,1 C 7,6 C 54 % 90 % 1023,6 hPa 0,0 l/m 0,1 km/h (0 Bft) NO 0,00 h 0,0 UV-I 0 W/m 6,0 C 7,6 C 0,9 km/h (0 Bft)
17.10.2016 02:00 24,1 C 5,8 C 54 % 90 % 1023,9 hPa 0,0 l/m 0,1 km/h (0 Bft) N-NO 0,00 h 0,0 UV-I 0 W/m 4,2 C 5,8 C 0,4 km/h (0 Bft)
17.10.2016 03:00 24,1 C 5,1 C 54 % 92 % 1024,0 hPa 0,0 l/m 0,5 km/h (0 Bft) N-NW 0,00 h 0,0 UV-I 0 W/m 3,9 C 5,1 C 1,2 km/h (1 Bft)
17.10.2016 04:00 24,0 C 4,9 C 54 % 94 % 1024,0 hPa 0,0 l/m 0,1 km/h (0 Bft) O 0,00 h 0,0 UV-I 0 W/m 3,9 C 4,9 C 0,1 km/h (0 Bft)
17.10.2016 05:00 23,7 C 5,0 C 54 % 94 % 1023,9 hPa 0,0 l/m 0,3 km/h (0 Bft) N-NW 0,00 h 0,0 UV-I 0 W/m 4,1 C 5,0 C 0,8 km/h (0 Bft)
17.10.2016 06:00 23,5 C 5,1 C 54 % 94 % 1024,1 hPa 0,0 l/m 0,6 km/h (0 Bft) NW 0,00 h 0,0 UV-I 0 W/m 4,2 C 5,1 C 1,3 km/h (1 Bft)
17.10.2016 07:00 23,6 C 5,1 C 54 % 95 % 1024,1 hPa 0,0 l/m 0,0 km/h (0 Bft) N 0,00 h 0,0 UV-I 14 W/m 4,3 C 5,1 C 0,0 km/h (0 Bft)
17.10.2016 08:00 23,7 C 5,4 C 54 % 95 % 1024,2 hPa 0,0 l/m 0,0 km/h (0 Bft) N 0,00 h 0,0 UV-I 59 W/m 4,7 C 5,4 C 0,0 km/h (0 Bft)
17.10.2016 09:00 23,7 C 8,1 C 54 % 92 % 1024,3 hPa 0,0 l/m 0,0 km/h (0 Bft) N 0,87 h 0,7 UV-I 227 W/m 6,9 C 8,1 C 0,0 km/h (0 Bft)
17.10.2016 10:00 23,7 C 12,2 C 53 % 83 % 1024,1 hPa 0,0 l/m 0,0 km/h (0 Bft) N 1,00 h 1,4 UV-I 386 W/m 9,3 C 12,2 C 0,0 km/h (0 Bft)
17.10.2016 11:00 23,7 C 14,8 C 54 % 73 % 1023,9 hPa 0,0 l/m 1,6 km/h (1 Bft) O-SO 1,00 h 1,8 UV-I 370 W/m 10,1 C 14,8 C 3,9 km/h (1 Bft)
17.10.2016 12:00 23,9 C 14,6 C 54 % 72 % 1023,6 hPa 0,0 l/m 1,5 km/h (1 Bft) O-NO 1,00 h 2,1 UV-I 367 W/m 9,6 C 14,6 C 4,7 km/h (1 Bft)
17.10.2016 13:00 23,7 C 14,9 C 52 % 73 % 1023,2 hPa 0,0 l/m 0,2 km/h (0 Bft) O-SO 1,00 h 1,9 UV-I 301 W/m 10,0 C 14,9 C 1,0 km/h (0 Bft)
17.10.2016 14:00 23,7 C 15,2 C 51 % 73 % 1022,8 hPa 0,0 l/m 0,8 km/h (0 Bft) O-NO 0,88 h 1,4 UV-I 246 W/m 10,5 C 15,2 C 2,1 km/h (1 Bft)
17.10.2016 15:00 23,8 C 15,2 C 50 % 74 % 1022,5 hPa 0,0 l/m 2,9 km/h (1 Bft) O-NO 0,98 h 1,1 UV-I 253 W/m 10,6 C 15,1 C 7,2 km/h (2 Bft)
17.10.2016 16:00 23,6 C 12,9 C 50 % 79 % 1022,4 hPa 0,0 l/m 3,8 km/h (1 Bft) O-NO 0,30 h 0,6 UV-I 137 W/m 9,4 C 12,8 C 9,1 km/h (2 Bft)
17.10.2016 17:00 23,6 C 9,8 C 50 % 87 % 1022,6 hPa 0,0 l/m 4,7 km/h (1 Bft) O-NO 0,00 h 0,0 UV-I 49 W/m 7,8 C 9,2 C 10,3 km/h (2 Bft)
17.10.2016 18:00 23,8 C 8,3 C 51 % 92 % 1023,3 hPa 0,0 l/m 4,2 km/h (1 Bft) O 0,00 h 0,0 UV-I 8 W/m 7,0 C 7,9 C 10,1 km/h (2 Bft)
17.10.2016 19:00 23,9 C 8,3 C 51 % 92 % 1023,9 hPa 0,0 l/m 1,7 km/h (1 Bft) O-SO 0,00 h 0,0 UV-I 0 W/m 7,1 C 8,3 C 4,4 km/h (1 Bft)
17.10.2016 20:00 23,8 C 8,4 C 52 % 92 % 1023,6 hPa 0,0 l/m 0,2 km/h (0 Bft) O 0,00 h 0,0 UV-I 0 W/m 7,3 C 8,4 C 1,0 km/h (0 Bft)
17.10.2016 21:00 24,1 C 8,5 C 51 % 92 % 1023,8 hPa 0,0 l/m 0,1 km/h (0 Bft) O 0,00 h 0,0 UV-I 0 W/m 7,4 C 8,5 C 0,2 km/h (0 Bft)
17.10.2016 22:00 24,3 C 8,6 C 51 % 93 % 1023,7 hPa 0,0 l/m 0,5 km/h (0 Bft) O 0,00 h 0,0 UV-I 0 W/m 7,5 C 8,6 C 1,1 km/h (0 Bft)
17.10.2016 23:00 24,1 C 8,7 C 52 % 93 % 1023,5 hPa 0,0 l/m 0,0 km/h (0 Bft) N 0,00 h 0,0 UV-I 0 W/m 7,6 C 8,7 C 0,0 km/h (0 Bft)
18.10.2016 00:00 23,9 C 8,7 C 52 % 93 % 1023,3 hPa 0,0 l/m 0,0 km/h (0 Bft) N 0,00 h 0,0 UV-I 0 W/m 7,6 C 8,7 C 0,0 km/h (0 Bft)
18.10.2016 01:00 24,3 C 8,7 C 53 % 94 % 1022,9 hPa 0,0 l/m 0,0 km/h (0 Bft) N 0,00 h 0,0 UV-I 0 W/m 7,7 C 8,7 C 0,0 km/h (0 Bft)
18.10.2016 02:00 24,4 C 8,6 C 53 % 94 % 1022,7 hPa 0,0 l/m 0,0 km/h (0 Bft) N 0,00 h 0,0 UV-I 0 W/m 7,7 C 8,6 C 0,0 km/h (0 Bft)
18.10.2016 03:00 24,4 C 8,6 C 53 % 95 % 1022,5 hPa 0,0 l/m 0,0 km/h (0 Bft) N 0,00 h 0,0 UV-I 0 W/m 7,9 C 8,6 C 0,0 km/h (0 Bft)
18.10.2016 04:00 24,4 C 8,8 C 54 % 95 % 1022,3 hPa 0,0 l/m 0,0 km/h (0 Bft) N 0,00 h 0,0 UV-I 0 W/m 8,0 C 8,8 C 0,0 km/h (0 Bft)
18.10.2016 05:00 24,0 C 8,8 C 54 % 96 % 1022,2 hPa 0,0 l/m 0,0 km/h (0 Bft) N 0,00 h 0,0 UV-I 0 W/m 8,2 C 8,8 C 0,0 km/h (0 Bft)
18.10.2016 06:00 23,8 C 8,9 C 54 % 96 % 1022,0 hPa 0,0 l/m 0,0 km/h (0 Bft) N 0,00 h 0,0 UV-I 0 W/m 8,3 C 8,9 C 0,0 km/h (0 Bft)
18.10.2016 07:00 23,7 C 9,1 C 55 % 96 % 1021,7 hPa 0,0 l/m 0,0 km/h (0 Bft) N 0,00 h 0,0 UV-I 0 W/m 8,5 C 9,1 C 0,0 km/h (0 Bft)
18.10.2016 08:00 23,9 C 9,2 C 55 % 96 % 1021,8 hPa 0,0 l/m 0,0 km/h (0 Bft) N 0,00 h 0,0 UV-I 18 W/m 8,6 C 9,2 C 0,1 km/h (0 Bft)
18.10.2016 09:00 23,9 C 9,4 C 55 % 97 % 1021,9 hPa 0,0 l/m 0,0 km/h (0 Bft) N 0,00 h 0,0 UV-I 35 W/m 9,0 C 9,4 C 0,1 km/h (0 Bft)
18.10.2016 10:00 23,8 C 9,7 C 54 % 97 % 1022,0 hPa 0,0 l/m 0,0 km/h (0 Bft) N 0,00 h 0,0 UV-I 39 W/m 9,2 C 9,7 C 0,0 km/h (0 Bft)
18.10.2016 11:00 23,8 C 10,0 C 54 % 97 % 1022,1 hPa 0,0 l/m 0,0 km/h (0 Bft) N 0,00 h 0,6 UV-I 47 W/m 9,6 C 10,0 C 0,0 km/h (0 Bft)
18.10.2016 12:00 23,8 C 11,0 C 54 % 96 % 1021,9 hPa 0,0 l/m 0,1 km/h (0 Bft) W-SW 0,05 h 0,8 UV-I 106 W/m 10,4 C 11,0 C 0,3 km/h (0 Bft)
18.10.2016 13:00 23,8 C 11,5 C 55 % 93 % 1021,7 hPa 0,0 l/m 0,4 km/h (0 Bft) S 0,00 h 0,6 UV-I 66 W/m 10,4 C 11,5 C 2,3 km/h (1 Bft)
18.10.2016 14:00 24,0 C 12,0 C 56 % 92 % 1021,4 hPa 0,0 l/m 0,4 km/h (0 Bft) S 0,15 h 0,9 UV-I 117 W/m 10,8 C 12,0 C 1,9 km/h (1 Bft)
18.10.2016 15:00 24,3 C 12,6 C 56 % 88 % 1021,0 hPa 0,0 l/m 1,1 km/h (1 Bft) SW 0,02 h 0,6 UV-I 83 W/m 10,6 C 12,6 C 4,0 km/h (1 Bft)
18.10.2016 16:00 24,4 C 12,6 C 56 % 87 % 1020,8 hPa 0,0 l/m 0,9 km/h (0 Bft) SW 0,00 h 0,5 UV-I 64 W/m 10,6 C 12,6 C 2,8 km/h (1 Bft)
18.10.2016 17:00 24,4 C 12,0 C 56 % 91 % 1020,6 hPa 0,0 l/m 0,4 km/h (0 Bft) S 0,00 h 0,0 UV-I 20 W/m 10,6 C 12,0 C 1,1 km/h (1 Bft)
18.10.2016 18:00 24,3 C 11,2 C 55 % 92 % 1020,6 hPa 0,0 l/m 0,0 km/h (0 Bft) N 0,00 h 0,0 UV-I 5 W/m 10,0 C 11,2 C 0,0 km/h (0 Bft)
18.10.2016 19:00 24,2 C 10,4 C 54 % 93 % 1020,6 hPa 0,0 l/m 0,0 km/h (0 Bft) N 0,00 h 0,0 UV-I 0 W/m 9,3 C 10,4 C 0,0 km/h (0 Bft)
18.10.2016 20:00 24,2 C 9,9 C 54 % 94 % 1020,5 hPa 0,0 l/m 0,0 km/h (0 Bft) N 0,00 h 0,0 UV-I 0 W/m 9,0 C 9,9 C 0,1 km/h (0 Bft)
18.10.2016 21:00 24,2 C 10,0 C 54 % 96 % 1020,4 hPa 1,0 l/m 0,0 km/h (0 Bft) W-SW 0,00 h 0,0 UV-I 0 W/m 9,3 C 10,0 C 0,3 km/h (0 Bft)
18.10.2016 22:00 24,2 C 10,2 C 54 % 96 % 1020,1 hPa 0,0 l/m 0,0 km/h (0 Bft) N 0,00 h 0,0 UV-I 0 W/m 9,6 C 10,2 C 0,2 km/h (0 Bft)
18.10.2016 23:00 24,0 C 10,2 C 54 % 96 % 1019,7 hPa 0,2 l/m 0,0 km/h (0 Bft) N 0,00 h 0,0 UV-I 0 W/m 9,5 C 10,2 C 0,5 km/h (0 Bft)
19.10.2016 00:00 23,9 C 10,0 C 55 % 96 % 1019,3 hPa 0,0 l/m 0,1 km/h (0 Bft) S 0,00 h 0,0 UV-I 0 W/m 9,4 C 10,0 C 0,8 km/h (0 Bft)
19.10.2016 01:00 23,8 C 9,9 C 55 % 96 % 1018,7 hPa 0,0 l/m 2,0 km/h (1 Bft) S-SW 0,00 h 0,0 UV-I 0 W/m 9,3 C 9,8 C 6,2 km/h (2 Bft)
19.10.2016 02:00 23,9 C 9,7 C 56 % 96 % 1018,2 hPa 0,0 l/m 4,7 km/h (1 Bft) S-SW 0,00 h 0,0 UV-I 0 W/m 9,0 C 9,5 C 11,1 km/h (2 Bft)
19.10.2016 03:00 24,0 C 8,9 C 56 % 94 % 1017,7 hPa 0,2 l/m 3,3 km/h (1 Bft) S 0,00 h 0,0 UV-I 0 W/m 8,0 C 8,8 C 7,4 km/h (2 Bft)
19.10.2016 04:00 24,0 C 8,2 C 56 % 94 % 1017,0 hPa 0,0 l/m 5,2 km/h (1 Bft) S 0,00 h 0,0 UV-I 0 W/m 7,3 C 7,9 C 9,1 km/h (2 Bft)
19.10.2016 05:00 23,8 C 8,2 C 57 % 94 % 1016,4 hPa 0,0 l/m 3,0 km/h (1 Bft) S 0,00 h 0,0 UV-I 0 W/m 7,4 C 8,2 C 7,1 km/h (2 Bft)
19.10.2016 06:00 23,7 C 8,3 C 57 % 95 % 1015,9 hPa 1,2 l/m 4,6 km/h (1 Bft) S 0,00 h 0,0 UV-I 0 W/m 7,5 C 7,4 C 9,7 km/h (2 Bft)
19.10.2016 07:00 23,7 C 7,4 C 57 % 94 % 1016,2 hPa 1,6 l/m 2,3 km/h (1 Bft) W 0,00 h 0,0 UV-I 0 W/m 6,5 C 7,3 C 5,7 km/h (1 Bft)
19.10.2016 08:00 23,7 C 7,2 C 57 % 95 % 1016,5 hPa 0,2 l/m 3,1 km/h (1 Bft) S 0,00 h 0,0 UV-I 9 W/m 6,4 C 7,2 C 6,9 km/h (2 Bft)
19.10.2016 09:00 23,9 C 7,4 C 57 % 95 % 1016,8 hPa 0,0 l/m 4,1 km/h (1 Bft) W-SW 0,18 h 0,6 UV-I 93 W/m 6,7 C 7,3 C 9,2 km/h (2 Bft)
19.10.2016 10:00 23,7 C 8,7 C 54 % 89 % 1016,8 hPa 0,0 l/m 4,9 km/h (1 Bft) W-SW 0,57 h 0,8 UV-I 246 W/m 6,9 C 8,3 C 10,9 km/h (2 Bft)
19.10.2016 11:00 23,4 C 8,1 C 50 % 86 % 1017,1 hPa 0,0 l/m 4,5 km/h (1 Bft) W-SW 0,03 h 0,7 UV-I 107 W/m 5,9 C 7,9 C 10,0 km/h (2 Bft)
19.10.2016 12:00 23,4 C 8,3 C 49 % 85 % 1016,9 hPa 0,0 l/m 4,4 km/h (1 Bft) W-SW 0,65 h 1,1 UV-I 184 W/m 6,0 C 8,1 C 9,7 km/h (2 Bft)
19.10.2016 13:00 22,9 C 9,3 C 46 % 83 % 1016,4 hPa 0,0 l/m 3,5 km/h (1 Bft) SW 0,82 h 1,5 UV-I 294 W/m 6,5 C 9,2 C 9,6 km/h (2 Bft)
19.10.2016 14:00 22,9 C 8,7 C 47 % 83 % 1016,1 hPa 0,0 l/m 3,8 km/h (1 Bft) S-SW 0,00 h 0,7 UV-I 100 W/m 6,0 C 8,5 C 9,0 km/h (2 Bft)
19.10.2016 15:00 23,3 C 8,5 C 48 % 85 % 1015,7 hPa 0,0 l/m 4,8 km/h (1 Bft) S 0,00 h 0,6 UV-I 80 W/m 6,1 C 8,2 C 10,0 km/h (2 Bft)
19.10.2016 16:00 23,3 C 8,0 C 48 % 86 % 1015,5 hPa 0,0 l/m 6,0 km/h (2 Bft) S 0,00 h 0,0 UV-I 46 W/m 5,9 C 7,3 C 11,9 km/h (2 Bft)
19.10.2016 17:00 23,6 C 7,7 C 49 % 86 % 1015,5 hPa 0,0 l/m 7,2 km/h (2 Bft) S 0,00 h 0,0 UV-I 15 W/m 5,5 C 6,5 C 13,0 km/h (3 Bft)
19.10.2016 18:00 24,1 C 7,2 C 49 % 89 % 1015,5 hPa 0,0 l/m 6,1 km/h (2 Bft) S 0,00 h 0,0 UV-I 0 W/m 5,5 C 6,9 C 10,7 km/h (2 Bft)
19.10.2016 19:00 24,2 C 6,9 C 50 % 91 % 1015,5 hPa 0,0 l/m 3,9 km/h (1 Bft) S 0,00 h 0,0 UV-I 0 W/m 5,5 C 6,8 C 7,7 km/h (2 Bft)
19.10.2016 20:00 24,0 C 6,6 C 48 % 92 % 1015,1 hPa 0,2 l/m 4,8 km/h (1 Bft) S 0,00 h 0,0 UV-I 0 W/m 5,3 C 6,6 C 7,5 km/h (2 Bft)
19.10.2016 21:00 24,1 C 6,4 C 50 % 92 % 1014,9 hPa 0,0 l/m 6,3 km/h (2 Bft) S 0,00 h 0,0 UV-I 0 W/m 5,1 C 5,9 C 10,3 km/h (2 Bft)
19.10.2016 22:00 23,9 C 6,9 C 50 % 89 % 1014,8 hPa 0,0 l/m 7,5 km/h (2 Bft) S 0,00 h 0,0 UV-I 0 W/m 5,2 C 5,9 C 13,0 km/h (3 Bft)
19.10.2016 23:00 23,8 C 7,1 C 50 % 88 % 1014,7 hPa 0,0 l/m 6,2 km/h (2 Bft) S 0,00 h 0,0 UV-I 0 W/m 5,3 C 6,4 C 11,1 km/h (2 Bft)
20.10.2016 00:00 23,7 C 6,7 C 51 % 91 % 1014,5 hPa 0,2 l/m 5,9 km/h (2 Bft) S 0,00 h 0,0 UV-I 0 W/m 5,4 C 6,4 C 9,9 km/h (2 Bft)
20.10.2016 01:00 23,8 C 6,4 C 52 % 93 % 1014,4 hPa 0,0 l/m 7,0 km/h (2 Bft) S 0,00 h 0,0 UV-I 0 W/m 5,3 C 5,6 C 11,6 km/h (2 Bft)
20.10.2016 02:00 24,1 C 6,4 C 52 % 94 % 1014,2 hPa 0,2 l/m 7,0 km/h (2 Bft) S 0,00 h 0,0 UV-I 0 W/m 5,5 C 5,2 C 12,4 km/h (3 Bft)
20.10.2016 03:00 24,1 C 6,3 C 53 % 94 % 1014,0 hPa 0,0 l/m 6,3 km/h (2 Bft) S 0,00 h 0,0 UV-I 0 W/m 5,4 C 5,8 C 11,0 km/h (2 Bft)
20.10.2016 04:00 24,0 C 5,7 C 53 % 94 % 1014,0 hPa 1,2 l/m 4,7 km/h (1 Bft) W 0,00 h 0,0 UV-I 0 W/m 4,8 C 5,0 C 8,4 km/h (2 Bft)
20.10.2016 05:00 23,7 C 4,9 C 54 % 94 % 1013,9 hPa 0,2 l/m 0,4 km/h (0 Bft) SW 0,00 h 0,0 UV-I 0 W/m 4,1 C 4,9 C 1,1 km/h (1 Bft)
20.10.2016 06:00 23,6 C 4,8 C 54 % 95 % 1014,0 hPa 0,0 l/m 2,0 km/h (1 Bft) S 0,00 h 0,0 UV-I 0 W/m 4,0 C 4,7 C 4,1 km/h (1 Bft)
20.10.2016 07:00 23,6 C 4,4 C 54 % 95 % 1014,3 hPa 0,0 l/m 2,2 km/h (1 Bft) S 0,00 h 0,0 UV-I 5 W/m 3,7 C 4,4 C 5,1 km/h (1 Bft)
20.10.2016 08:00 23,7 C 4,5 C 54 % 95 % 1014,8 hPa 0,0 l/m 0,6 km/h (0 Bft) S 0,00 h 0,0 UV-I 28 W/m 3,8 C 4,5 C 1,6 km/h (1 Bft)
20.10.2016 09:00 23,8 C 5,0 C 53 % 95 % 1015,0 hPa 0,0 l/m 1,6 km/h (1 Bft) S 0,03 h 0,6 UV-I 83 W/m 4,3 C 5,0 C 3,8 km/h (1 Bft)
20.10.2016 10:00 23,7 C 6,6 C 51 % 91 % 1014,9 hPa 0,0 l/m 1,8 km/h (1 Bft) S 0,92 h 0,9 UV-I 265 W/m 5,3 C 6,6 C 5,1 km/h (1 Bft)
20.10.2016 11:00 23,5 C 6,8 C 48 % 88 % 1014,8 hPa 0,0 l/m 2,9 km/h (1 Bft) S 0,60 h 1,1 UV-I 194 W/m 5,0 C 6,8 C 6,5 km/h (2 Bft)
20.10.2016 12:00 23,2 C 8,0 C 46 % 83 % 1014,2 hPa 0,0 l/m 3,3 km/h (1 Bft) S 1,00 h 1,6 UV-I 316 W/m 5,4 C 8,0 C 7,8 km/h (2 Bft)
20.10.2016 13:00 23,2 C 7,9 C 45 % 83 % 1013,6 hPa 0,4 l/m 4,5 km/h (1 Bft) S 0,35 h 0,9 UV-I 120 W/m 5,2 C 7,7 C 8,7 km/h (2 Bft)
20.10.2016 14:00 23,4 C 6,8 C 47 % 92 % 1013,2 hPa 0,4 l/m 3,0 km/h (1 Bft) S-SO 0,00 h 0,6 UV-I 70 W/m 5,5 C 6,7 C 5,9 km/h (2 Bft)
20.10.2016 15:00 23,7 C 6,2 C 48 % 93 % 1012,9 hPa 1,6 l/m 1,3 km/h (1 Bft) W-NW 0,00 h 0,0 UV-I 28 W/m 5,1 C 6,2 C 2,9 km/h (1 Bft)
20.10.2016 16:00 23,7 C 5,9 C 48 % 94 % 1012,7 hPa 0,6 l/m 0,3 km/h (0 Bft) SO 0,00 h 0,0 UV-I 32 W/m 5,0 C 5,9 C 1,0 km/h (0 Bft)
20.10.2016 17:00 23,9 C 6,0 C 49 % 94 % 1012,6 hPa 0,8 l/m 3,4 km/h (1 Bft) S 0,00 h 0,0 UV-I 10 W/m 5,1 C 5,7 C 6,8 km/h (2 Bft)
20.10.2016 18:00 24,0 C 5,3 C 48 % 93 % 1012,8 hPa 0,8 l/m 3,5 km/h (1 Bft) S 0,00 h 0,0 UV-I 0 W/m 4,3 C 5,2 C 7,2 km/h (2 Bft)
20.10.2016 19:00 24,1 C 4,8 C 48 % 94 % 1012,7 hPa 0,0 l/m 3,1 km/h (1 Bft) S-SO 0,00 h 0,0 UV-I 0 W/m 3,9 C 4,8 C 5,3 km/h (1 Bft)
20.10.2016 20:00 24,0 C 4,7 C 48 % 95 % 1012,5 hPa 0,2 l/m 1,9 km/h (1 Bft) S-SO 0,00 h 0,0 UV-I 0 W/m 4,0 C 4,7 C 4,0 km/h (1 Bft)
20.10.2016 21:00 23,9 C 4,8 C 48 % 95 % 1012,5 hPa 0,0 l/m 0,7 km/h (0 Bft) S-SO 0,00 h 0,0 UV-I 0 W/m 4,1 C 4,8 C 1,3 km/h (1 Bft)
20.10.2016 22:00 23,7 C 4,9 C 49 % 96 % 1012,5 hPa 0,2 l/m 0,0 km/h (0 Bft) N 0,00 h 0,0 UV-I 0 W/m 4,3 C 4,9 C 0,0 km/h (0 Bft)
20.10.2016 23:00 23,6 C 4,9 C 50 % 96 % 1012,3 hPa 0,0 l/m 0,0 km/h (0 Bft) N 0,00 h 0,0 UV-I 0 W/m 4,3 C 4,9 C 0,0 km/h (0 Bft)
21.10.2016 00:00 23,6 C 4,9 C 50 % 96 % 1012,3 hPa 0,0 l/m 0,0 km/h (0 Bft) N 0,00 h 0,0 UV-I 0 W/m 4,3 C 4,9 C 0,0 km/h (0 Bft)
21.10.2016 01:00 23,4 C 4,9 C 51 % 96 % 1012,2 hPa 0,2 l/m 0,0 km/h (0 Bft) N 0,00 h 0,0 UV-I 0 W/m 4,3 C 4,9 C 0,0 km/h (0 Bft)
21.10.2016 02:00 23,0 C 4,8 C 52 % 96 % 1012,1 hPa 1,6 l/m 0,1 km/h (0 Bft) W 0,00 h 0,0 UV-I 0 W/m 4,2 C 4,8 C 0,4 km/h (0 Bft)
21.10.2016 03:00 22,6 C 4,2 C 53 % 96 % 1011,8 hPa 2,2 l/m 1,2 km/h (1 Bft) W-NW 0,00 h 0,0 UV-I 0 W/m 3,6 C 4,2 C 2,6 km/h (1 Bft)
21.10.2016 04:00 23,0 C 3,8 C 53 % 95 % 1011,6 hPa 0,6 l/m 1,7 km/h (1 Bft) N-NW 0,00 h 0,0 UV-I 0 W/m 3,1 C 3,8 C 3,4 km/h (1 Bft)
21.10.2016 05:00 23,3 C 3,6 C 52 % 95 % 1011,5 hPa 0,4 l/m 0,0 km/h (0 Bft) N 0,00 h 0,0 UV-I 0 W/m 2,9 C 3,6 C 0,0 km/h (0 Bft)
21.10.2016 06:00 23,3 C 3,4 C 52 % 96 % 1011,7 hPa 0,2 l/m 0,0 km/h (0 Bft) N 0,00 h 0,0 UV-I 0 W/m 2,8 C 3,4 C 0,0 km/h (0 Bft)
21.10.2016 07:00 23,2 C 3,5 C 52 % 96 % 1012,1 hPa 0,0 l/m 0,0 km/h (0 Bft) N 0,00 h 0,0 UV-I 0 W/m 3,0 C 3,5 C 0,0 km/h (0 Bft)
21.10.2016 08:00 23,1 C 3,5 C 52 % 96 % 1012,8 hPa 0,0 l/m 0,0 km/h (0 Bft) SW 0,00 h 0,0 UV-I 14 W/m 3,0 C 3,5 C 0,4 km/h (0 Bft)
21.10.2016 09:00 23,1 C 4,0 C 52 % 96 % 1013,2 hPa 0,0 l/m 0,1 km/h (0 Bft) W-SW 0,00 h 0,5 UV-I 57 W/m 3,4 C 4,0 C 0,6 km/h (0 Bft)
21.10.2016 10:00 23,2 C 5,0 C 52 % 95 % 1013,5 hPa 0,0 l/m 0,9 km/h (0 Bft) W-SW 0,47 h 0,8 UV-I 193 W/m 4,3 C 5,0 C 3,2 km/h (1 Bft)
21.10.2016 11:00 23,0 C 5,7 C 48 % 92 % 1013,8 hPa 0,0 l/m 1,3 km/h (1 Bft) W-SW 0,08 h 0,6 UV-I 107 W/m 4,4 C 5,7 C 3,7 km/h (1 Bft)
21.10.2016 12:00 23,3 C 6,1 C 47 % 92 % 1013,9 hPa 0,0 l/m 1,7 km/h (1 Bft) S 0,55 h 1,0 UV-I 200 W/m 5,0 C 6,1 C 4,5 km/h (1 Bft)
21.10.2016 13:00 23,4 C 6,6 C 46 % 88 % 1013,8 hPa 0,0 l/m 5,5 km/h (1 Bft) W 0,53 h 1,0 UV-I 212 W/m 4,7 C 5,8 C 11,0 km/h (2 Bft)
21.10.2016 14:00 23,1 C 6,9 C 45 % 85 % 1013,9 hPa 0,2 l/m 5,2 km/h (1 Bft) W-SW 0,55 h 1,2 UV-I 240 W/m 4,5 C 6,2 C 10,6 km/h (2 Bft)
21.10.2016 15:00 23,1 C 6,4 C 44 % 86 % 1014,1 hPa 0,0 l/m 4,3 km/h (1 Bft) W-SW 0,13 h 0,8 UV-I 104 W/m 4,2 C 5,9 C 8,7 km/h (2 Bft)
21.10.2016 16:00 23,3 C 6,1 C 44 % 86 % 1014,4 hPa 0,0 l/m 4,2 km/h (1 Bft) W 0,02 h 0,5 UV-I 65 W/m 4,0 C 5,9 C 8,3 km/h (2 Bft)
21.10.2016 17:00 23,5 C 5,6 C 45 % 86 % 1014,6 hPa 0,0 l/m 2,3 km/h (1 Bft) W-SW 0,00 h 0,0 UV-I 9 W/m 3,5 C 5,6 C 4,7 km/h (1 Bft)
21.10.2016 18:00 23,8 C 5,1 C 46 % 90 % 1014,9 hPa 0,0 l/m 1,9 km/h (1 Bft) S-SW 0,00 h 0,0 UV-I 0 W/m 3,7 C 5,1 C 3,7 km/h (1 Bft)
21.10.2016 19:00 23,8 C 4,7 C 47 % 92 % 1015,0 hPa 0,0 l/m 0,1 km/h (0 Bft) S 0,00 h 0,0 UV-I 0 W/m 3,5 C 4,7 C 0,2 km/h (0 Bft)
21.10.2016 20:00 23,9 C 4,6 C 47 % 94 % 1015,3 hPa 0,0 l/m 1,8 km/h (1 Bft) S 0,00 h 0,0 UV-I 0 W/m 3,6 C 4,6 C 3,1 km/h (1 Bft)
21.10.2016 21:00 24,1 C 4,6 C 47 % 94 % 1015,5 hPa 0,0 l/m 2,0 km/h (1 Bft) S 0,00 h 0,0 UV-I 0 W/m 3,8 C 4,6 C 3,5 km/h (1 Bft)
21.10.2016 22:00 24,1 C 4,5 C 48 % 95 % 1015,7 hPa 0,0 l/m 2,4 km/h (1 Bft) S 0,00 h 0,0 UV-I 0 W/m 3,7 C 4,5 C 4,2 km/h (1 Bft)
21.10.2016 23:00 23,8 C 4,0 C 47 % 94 % 1015,6 hPa 0,0 l/m 2,3 km/h (1 Bft) S 0,00 h 0,0 UV-I 0 W/m 3,2 C 4,0 C 4,6 km/h (1 Bft)
22.10.2016 00:00 23,5 C 3,7 C 48 % 95 % 1015,5 hPa 0,0 l/m 2,2 km/h (1 Bft) S 0,00 h 0,0 UV-I 0 W/m 3,0 C 3,7 C 4,5 km/h (1 Bft)
22.10.2016 01:00 23,4 C 3,8 C 48 % 95 % 1015,3 hPa 0,0 l/m 0,6 km/h (0 Bft) S 0,00 h 0,0 UV-I 0 W/m 3,1 C 3,8 C 1,5 km/h (1 Bft)
22.10.2016 02:00 23,3 C 3,9 C 49 % 95 % 1015,1 hPa 0,0 l/m 3,8 km/h (1 Bft) SW 0,00 h 0,0 UV-I 0 W/m 3,2 C 3,9 C 7,5 km/h (2 Bft)
22.10.2016 03:00 23,2 C 3,8 C 49 % 95 % 1014,8 hPa 0,0 l/m 2,8 km/h (1 Bft) S 0,00 h 0,0 UV-I 0 W/m 3,1 C 3,8 C 5,4 km/h (1 Bft)
22.10.2016 04:00 23,2 C 3,8 C 49 % 95 % 1014,4 hPa 0,0 l/m 3,2 km/h (1 Bft) S-SO 0,00 h 0,0 UV-I 0 W/m 3,1 C 3,7 C 5,8 km/h (2 Bft)
22.10.2016 05:00 23,3 C 4,0 C 50 % 95 % 1014,3 hPa 0,6 l/m 2,6 km/h (1 Bft) S-SO 0,00 h 0,0 UV-I 0 W/m 3,2 C 4,0 C 5,1 km/h (1 Bft)
22.10.2016 06:00 23,3 C 4,1 C 50 % 95 % 1014,0 hPa 0,0 l/m 2,8 km/h (1 Bft) S-SO 0,00 h 0,0 UV-I 0 W/m 3,4 C 4,1 C 5,2 km/h (1 Bft)
22.10.2016 07:00 23,4 C 4,3 C 51 % 96 % 1014,0 hPa 0,0 l/m 2,3 km/h (1 Bft) S 0,00 h 0,0 UV-I 8 W/m 3,7 C 4,3 C 4,9 km/h (1 Bft)
22.10.2016 08:00 23,4 C 4,5 C 51 % 96 % 1014,0 hPa 0,0 l/m 4,4 km/h (1 Bft) S 0,00 h 0,0 UV-I 19 W/m 3,9 C 4,3 C 7,5 km/h (2 Bft)
22.10.2016 09:00 23,4 C 4,6 C 50 % 96 % 1014,1 hPa 0,2 l/m 4,1 km/h (1 Bft) S 0,00 h 0,0 UV-I 22 W/m 4,1 C 4,6 C 8,2 km/h (2 Bft)
22.10.2016 10:00 23,3 C 4,7 C 47 % 95 % 1014,0 hPa 0,8 l/m 6,1 km/h (2 Bft) S 0,00 h 0,5 UV-I 42 W/m 4,0 C 4,2 C 11,2 km/h (2 Bft)
22.10.2016 11:00 22,9 C 4,7 C 46 % 95 % 1014,2 hPa 0,2 l/m 5,0 km/h (1 Bft) S 0,00 h 0,5 UV-I 49 W/m 4,0 C 4,4 C 9,7 km/h (2 Bft)
22.10.2016 12:00 23,0 C 4,9 C 47 % 95 % 1014,2 hPa 0,0 l/m 5,2 km/h (1 Bft) S 0,00 h 0,5 UV-I 57 W/m 4,1 C 4,4 C 9,3 km/h (2 Bft)
22.10.2016 13:00 23,2 C 5,1 C 48 % 95 % 1014,3 hPa 0,0 l/m 3,8 km/h (1 Bft) S 0,03 h 0,6 UV-I 72 W/m 4,4 C 5,1 C 7,7 km/h (2 Bft)
22.10.2016 14:00 23,4 C 5,4 C 48 % 94 % 1014,3 hPa 0,0 l/m 3,6 km/h (1 Bft) S 0,00 h 0,5 UV-I 59 W/m 4,6 C 5,3 C 7,5 km/h (2 Bft)
22.10.2016 15:00 23,7 C 5,5 C 48 % 94 % 1014,2 hPa 0,0 l/m 3,4 km/h (1 Bft) S 0,00 h 0,5 UV-I 53 W/m 4,6 C 5,4 C 6,8 km/h (2 Bft)
22.10.2016 16:00 23,7 C 5,5 C 49 % 94 % 1014,3 hPa 0,0 l/m 1,4 km/h (1 Bft) SW 0,00 h 0,5 UV-I 29 W/m 4,6 C 5,5 C 4,0 km/h (1 Bft)
22.10.2016 17:00 23,7 C 5,5 C 49 % 95 % 1014,5 hPa 0,0 l/m 2,9 km/h (1 Bft) S 0,00 h 0,0 UV-I 8 W/m 4,7 C 5,5 C 6,3 km/h (2 Bft)
22.10.2016 18:00 24,1 C 5,4 C 50 % 95 % 1014,6 hPa 0,0 l/m 1,4 km/h (1 Bft) S 0,00 h 0,0 UV-I 0 W/m 4,7 C 5,4 C 3,1 km/h (1 Bft)
22.10.2016 19:00 24,1 C 5,4 C 50 % 95 % 1015,0 hPa 0,0 l/m 0,0 km/h (0 Bft) N 0,00 h 0,0 UV-I 0 W/m 4,6 C 5,4 C 0,0 km/h (0 Bft)
22.10.2016 20:00 23,5 C 5,4 C 52 % 95 % 1015,4 hPa 0,0 l/m 0,0 km/h (0 Bft) N 0,00 h 0,0 UV-I 0 W/m 4,7 C 5,4 C 0,0 km/h (0 Bft)
22.10.2016 21:00 23,4 C 5,4 C 52 % 95 % 1015,6 hPa 0,0 l/m 0,2 km/h (0 Bft) SO 0,00 h 0,0 UV-I 0 W/m 4,7 C 5,4 C 0,7 km/h (0 Bft)
22.10.2016 22:00 23,5 C 5,3 C 53 % 96 % 1015,8 hPa 0,0 l/m 0,0 km/h (0 Bft) N 0,00 h 0,0 UV-I 0 W/m 4,7 C 5,3 C 0,0 km/h (0 Bft)
22.10.2016 23:00 23,8 C 5,2 C 51 % 96 % 1015,7 hPa 0,0 l/m 0,0 km/h (0 Bft) S-SO 0,00 h 0,0 UV-I 0 W/m 4,6 C 5,2 C 0,1 km/h (0 Bft)
23.10.2016 00:00 23,7 C 5,2 C 51 % 96 % 1015,9 hPa 0,0 l/m 0,1 km/h (0 Bft) S-SO 0,00 h 0,0 UV-I 0 W/m 4,6 C 5,2 C 0,3 km/h (0 Bft)
23.10.2016 01:00 23,6 C 5,1 C 51 % 96 % 1015,9 hPa 0,0 l/m 0,0 km/h (0 Bft) N 0,00 h 0,0 UV-I 0 W/m 4,5 C 5,1 C 0,0 km/h (0 Bft)
23.10.2016 02:00 23,6 C 4,9 C 51 % 96 % 1015,7 hPa 0,0 l/m 0,0 km/h (0 Bft) N 0,00 h 0,0 UV-I 0 W/m 4,3 C 4,9 C 0,0 km/h (0 Bft)
23.10.2016 03:00 23,6 C 3,9 C 51 % 95 % 1015,5 hPa 0,0 l/m 0,0 km/h (0 Bft) N 0,00 h 0,0 UV-I 0 W/m 3,1 C 3,9 C 0,0 km/h (0 Bft)
23.10.2016 04:00 23,9 C 2,6 C 52 % 94 % 1015,3 hPa 0,0 l/m 0,0 km/h (0 Bft) N 0,00 h 0,0 UV-I 0 W/m 1,8 C 2,6 C 0,0 km/h (0 Bft)
23.10.2016 05:00 24,1 C 1,1 C 52 % 93 % 1015,3 hPa 0,0 l/m 0,0 km/h (0 Bft) N 0,00 h 0,0 UV-I 0 W/m 0,2 C 1,1 C 0,0 km/h (0 Bft)
23.10.2016 06:00 24,1 C 0,6 C 52 % 95 % 1015,4 hPa 0,0 l/m 0,0 km/h (0 Bft) N 0,00 h 0,0 UV-I 0 W/m -0,2 C 0,6 C 0,0 km/h (0 Bft)
23.10.2016 07:00 24,0 C 0,4 C 52 % 95 % 1015,5 hPa 0,0 l/m 0,0 km/h (0 Bft) N 0,00 h 0,0 UV-I 7 W/m -0,3 C 0,4 C 0,0 km/h (0 Bft)
23.10.2016 08:00 23,8 C 1,0 C 51 % 96 % 1015,7 hPa 0,0 l/m 0,0 km/h (0 Bft) N 0,00 h 0,0 UV-I 30 W/m 0,5 C 1,0 C 0,0 km/h (0 Bft)
23.10.2016 09:00 23,7 C 3,2 C 50 % 97 % 1015,9 hPa 0,0 l/m 0,1 km/h (0 Bft) NO 0,30 h 0,6 UV-I 125 W/m 2,8 C 3,2 C 0,9 km/h (0 Bft)
23.10.2016 10:00 23,7 C 6,8 C 50 % 93 % 1015,8 hPa 0,0 l/m 1,3 km/h (1 Bft) O-NO 0,87 h 0,9 UV-I 260 W/m 5,7 C 6,8 C 4,1 km/h (1 Bft)
23.10.2016 11:00 23,5 C 8,2 C 49 % 87 % 1015,9 hPa 0,0 l/m 1,2 km/h (1 Bft) O-NO 1,00 h 1,5 UV-I 351 W/m 6,1 C 8,2 C 4,2 km/h (1 Bft)
23.10.2016 12:00 23,5 C 9,6 C 47 % 81 % 1015,4 hPa 0,0 l/m 1,1 km/h (1 Bft) O-NO 1,00 h 1,8 UV-I 450 W/m 6,5 C 9,6 C 3,9 km/h (1 Bft)
23.10.2016 13:00 23,7 C 10,1 C 46 % 72 % 1014,8 hPa 0,0 l/m 2,1 km/h (1 Bft) O-SO 1,00 h 1,8 UV-I 425 W/m 5,3 C 10,1 C 6,6 km/h (2 Bft)
23.10.2016 14:00 23,6 C 10,1 C 44 % 70 % 1014,2 hPa 0,0 l/m 2,6 km/h (1 Bft) O-SO 0,98 h 1,3 UV-I 274 W/m 4,9 C 10,0 C 7,2 km/h (2 Bft)
23.10.2016 15:00 23,2 C 9,4 C 42 % 74 % 1014,1 hPa 0,0 l/m 2,0 km/h (1 Bft) O-SO 0,42 h 0,8 UV-I 159 W/m 5,0 C 9,4 C 5,5 km/h (1 Bft)
23.10.2016 16:00 23,4 C 9,4 C 42 % 76 % 1014,2 hPa 0,0 l/m 0,0 km/h (0 Bft) N 0,18 h 0,5 UV-I 119 W/m 5,4 C 9,4 C 0,2 km/h (0 Bft)
23.10.2016 17:00 23,7 C 8,8 C 42 % 79 % 1014,1 hPa 0,0 l/m 0,0 km/h (0 Bft) N 0,00 h 0,0 UV-I 35 W/m 5,4 C 8,8 C 0,0 km/h (0 Bft)
23.10.2016 18:00 23,8 C 7,9 C 44 % 84 % 1014,1 hPa 0,0 l/m 0,4 km/h (0 Bft) O-NO 0,00 h 0,0 UV-I 0 W/m 5,3 C 7,9 C 1,2 km/h (1 Bft)
23.10.2016 19:00 24,0 C 6,7 C 45 % 88 % 1014,4 hPa 0,0 l/m 3,8 km/h (1 Bft) O 0,00 h 0,0 UV-I 0 W/m 4,9 C 6,3 C 8,7 km/h (2 Bft)
23.10.2016 20:00 24,0 C 5,5 C 46 % 90 % 1014,7 hPa 0,0 l/m 6,1 km/h (2 Bft) O 0,00 h 0,0 UV-I 0 W/m 4,0 C 4,6 C 12,6 km/h (3 Bft)
23.10.2016 21:00 24,1 C 5,2 C 46 % 91 % 1015,0 hPa 0,0 l/m 3,1 km/h (1 Bft) O-NO 0,00 h 0,0 UV-I 0 W/m 3,9 C 4,8 C 7,0 km/h (2 Bft)
23.10.2016 22:00 23,8 C 5,2 C 44 % 92 % 1015,0 hPa 0,0 l/m 1,4 km/h (1 Bft) O 0,00 h 0,0 UV-I 0 W/m 3,9 C 5,2 C 3,4 km/h (1 Bft)
23.10.2016 23:00 23,6 C 5,0 C 45 % 93 % 1015,0 hPa 0,0 l/m 1,3 km/h (1 Bft) O 0,00 h 0,0 UV-I 0 W/m 3,9 C 5,0 C 3,9 km/h (1 Bft)
Min-Datum _ 19.10.16 23.10.16 23.10.16 23.10.16 21.10.16 - 17.10.16 - - - - 23.10.16 22.10.16 17.10.16
_ Min-Zeit 13:48 07:04 15:45 13:56 04:38 - 00:26 - - - - 05:58 10:49 00:28
Minimum _ 22,3 C 0,4 C 39 % 67 % 1011,4 hPa - 0,0 km/h (0 Bft) - - - - -0,4 C -0,9 C 0,0 km/h (0 Bft)
Max-Datum _ 18.10.16 17.10.16 19.10.16 23.10.16 17.10.16 21.10.16 19.10.16 - 17.10.16 19.10.16 21.10.16 17.10.16 17.10.16 19.10.16
_ Max-Zeit 02:29 15:08 04:38 09:44 09:07 03:04 06:49 - 11:59 13:18 13:05 15:08 15:08 06:49
Maximum _ 24,6 C 16,1 C 57 % 98 % 1024,4 hPa 2,2 l/m 17,7 km/h
S (3 Bft)
- 0,03 h 2,5 UV-I 749 W/m 11,3 C 16,1 C 32,2 km/h
S (5 Bft)
Durchschnitt _ 23,7 C 6,9 C 51 % 92 % 1016,9 hPa #18,6 l/m 2,0 km/h (1 Bft) S #20:31 h 0,9 UV-I 121 W/m 5,6 C 6,8 C 4,2 km/h (1 Bft)